createdAt,value
2022-11-10T00:02:28.680Z,11.93
2022-11-10T00:05:15.677Z,13.38
2022-11-10T00:08:06.087Z,15.57
2022-11-10T00:11:01.733Z,12.52
2022-11-10T00:14:07.410Z,15.85
2022-11-10T00:17:02.296Z,15.57
2022-11-10T00:19:47.442Z,17.42
2022-11-10T00:22:37.676Z,14.25
2022-11-10T00:25:24.363Z,17.40
2022-11-10T00:28:09.468Z,11.35
2022-11-10T00:30:54.929Z,12.43
2022-11-10T00:33:43.406Z,16.35
2022-11-10T00:36:28.678Z,17.10
2022-11-10T00:39:14.318Z,11.63
2022-11-10T00:41:59.695Z,17.90
2022-11-10T00:44:45.208Z,10.48
2022-11-10T00:47:30.406Z,11.32
2022-11-10T00:50:15.991Z,21.65
2022-11-10T00:53:01.371Z,16.52
2022-11-10T00:55:47.098Z,17.45
2022-11-10T00:58:32.401Z,12.90
2022-11-10T01:01:20.053Z,18.63
2022-11-10T01:04:05.573Z,20.23
2022-11-10T01:06:52.574Z,17.42
2022-11-10T01:09:37.603Z,13.95
2022-11-10T01:12:23.131Z,17.23
2022-11-10T01:15:09.225Z,9.13
2022-11-10T01:17:55.990Z,16.27
2022-11-10T01:20:41.159Z,12.82
2022-11-10T01:23:26.827Z,12.80
2022-11-10T01:26:12.372Z,15.18
2022-11-10T01:28:57.947Z,11.07
2022-11-10T01:31:43.062Z,17.23
2022-11-10T01:34:28.407Z,14.30
2022-11-10T01:37:13.844Z,14.60
2022-11-10T01:39:59.244Z,12.45
2022-11-10T01:42:53.434Z,18.27
2022-11-10T01:45:44.441Z,18.27
2022-11-10T01:48:38.725Z,19.63
2022-11-10T01:51:33.312Z,16.52
2022-11-10T01:54:25.064Z,14.18
2022-11-10T01:59:58.005Z,11.70
2022-11-10T02:03:05.173Z,18.95
2022-11-10T02:05:51.186Z,15.93
2022-11-10T02:08:37.563Z,17.80
2022-11-10T02:11:23.689Z,12.68
2022-11-10T02:14:09.779Z,14.73
2022-11-10T02:16:55.129Z,13.60
2022-11-10T02:19:42.067Z,12.88
2022-11-10T02:22:27.430Z,14.05
2022-11-10T02:25:17.411Z,13.05
2022-11-10T02:28:03.193Z,17.00
2022-11-10T02:30:48.959Z,16.60
2022-11-10T02:33:34.149Z,19.83
2022-11-10T02:36:19.613Z,18.85
2022-11-10T02:39:04.946Z,12.80
2022-11-10T02:41:50.173Z,15.20
2022-11-10T02:44:39.017Z,13.52
2022-11-10T02:47:24.201Z,15.60
2022-11-10T02:50:09.712Z,22.13
2022-11-10T02:52:55.192Z,18.83
2022-11-10T02:55:40.423Z,19.23
2022-11-10T02:58:25.469Z,14.77
2022-11-10T03:01:11.212Z,14.45
2022-11-10T03:03:56.253Z,17.67
2022-11-10T03:06:41.728Z,12.40
2022-11-10T03:09:27.017Z,12.07
2022-11-10T03:12:12.255Z,19.30
2022-11-10T03:14:57.622Z,17.42
2022-11-10T03:17:43.228Z,20.48
2022-11-10T03:20:28.624Z,19.58
2022-11-10T03:23:14.739Z,14.10
2022-11-10T03:26:03.115Z,16.98
2022-11-10T03:28:48.356Z,24.73
2022-11-10T03:31:33.765Z,13.75
2022-11-10T03:34:19.354Z,21.77
2022-11-10T03:37:04.681Z,18.95
2022-11-10T03:39:50.448Z,23.55
2022-11-10T03:42:35.926Z,16.65
2022-11-10T03:45:21.449Z,13.98
2022-11-10T03:48:06.849Z,26.90
2022-11-10T03:50:52.276Z,23.55
2022-11-10T03:53:37.745Z,20.42
2022-11-10T03:56:23.202Z,16.00
2022-11-10T03:59:08.491Z,17.80
2022-11-10T04:01:53.984Z,17.40
2022-11-10T04:04:57.903Z,19.17
2022-11-10T04:08:01.997Z,18.00
2022-11-10T04:10:49.912Z,13.00
2022-11-10T04:13:53.702Z,18.38
2022-11-10T04:16:39.010Z,15.10
2022-11-10T04:19:24.581Z,20.88
2022-11-10T04:22:29.990Z,21.30
2022-11-10T04:25:15.286Z,16.75
2022-11-10T04:28:00.804Z,14.80
2022-11-10T04:30:45.856Z,17.23
2022-11-10T04:33:30.970Z,16.08
2022-11-10T04:36:22.788Z,18.88
2022-11-10T04:39:08.878Z,18.15
2022-11-10T04:41:58.400Z,14.15
2022-11-10T04:44:46.582Z,23.08
2022-11-10T04:47:31.981Z,27.30
2022-11-10T04:50:17.304Z,18.02
2022-11-10T04:53:02.535Z,24.92
2022-11-10T04:55:48.681Z,23.20
2022-11-10T04:58:33.988Z,21.83
2022-11-10T05:01:21.857Z,18.88
2022-11-10T05:04:07.630Z,19.83
2022-11-10T05:06:53.855Z,22.40
2022-11-10T05:09:39.208Z,25.77
2022-11-10T05:12:24.205Z,18.63
2022-11-10T05:15:10.155Z,17.27
2022-11-10T05:17:55.593Z,19.98
2022-11-10T05:20:41.003Z,25.52
2022-11-10T05:23:46.511Z,33.25
2022-11-10T05:26:31.878Z,19.23
2022-11-10T05:29:17.114Z,21.63
2022-11-10T05:32:02.637Z,22.60
2022-11-10T05:34:47.962Z,19.17
2022-11-10T05:37:33.464Z,22.20
2022-11-10T05:40:18.998Z,19.80
2022-11-10T05:43:04.380Z,18.55
2022-11-10T05:45:50.191Z,25.00
2022-11-10T05:48:35.223Z,20.73
2022-11-10T05:51:20.527Z,25.67
2022-11-10T05:54:06.186Z,20.33
2022-11-10T05:56:51.372Z,19.30
2022-11-10T05:59:36.914Z,20.17
2022-11-10T06:02:22.213Z,21.50
2022-11-10T06:05:08.242Z,11.52
2022-11-10T06:07:53.932Z,21.17
2022-11-10T06:10:39.991Z,22.33
2022-11-10T06:13:25.869Z,19.40
2022-11-10T06:16:11.104Z,22.58
2022-11-10T06:18:56.422Z,22.60
2022-11-10T06:21:41.815Z,22.50
2022-11-10T06:24:27.108Z,24.55
2022-11-10T06:27:12.511Z,19.83
2022-11-10T06:29:57.837Z,24.60
2022-11-10T06:32:46.432Z,24.58
2022-11-10T06:35:31.674Z,15.75
2022-11-10T06:38:16.916Z,18.50
2022-11-10T06:41:02.008Z,22.85
2022-11-10T06:43:47.480Z,21.15
2022-11-10T06:46:32.583Z,25.52
2022-11-10T06:49:18.016Z,20.35
2022-11-10T06:52:03.455Z,18.50
2022-11-10T06:54:48.805Z,17.50
2022-11-10T06:57:39.000Z,24.00
2022-11-10T07:00:25.877Z,22.00
2022-11-10T07:03:14.064Z,21.75
2022-11-10T07:05:59.356Z,20.58
2022-11-10T07:08:45.406Z,28.25
2022-11-10T07:11:30.543Z,23.83
2022-11-10T07:14:15.787Z,21.85
2022-11-10T07:17:01.241Z,25.25
2022-11-10T07:19:46.729Z,17.15
2022-11-10T07:22:31.992Z,24.02
2022-11-10T07:25:17.391Z,20.85
2022-11-10T07:28:08.484Z,23.50
2022-11-10T07:30:54.837Z,17.73
2022-11-10T07:33:40.139Z,19.25
2022-11-10T07:36:28.788Z,14.80
2022-11-10T07:39:14.126Z,18.85
2022-11-10T07:41:59.640Z,23.15
2022-11-10T07:44:44.995Z,23.15
2022-11-10T07:47:30.268Z,16.80
2022-11-10T07:50:16.264Z,23.15
2022-11-10T07:53:13.358Z,26.52
2022-11-10T07:55:58.803Z,20.33
2022-11-10T07:58:44.758Z,14.23
2022-11-10T08:01:30.416Z,20.65
2022-11-10T08:04:15.693Z,17.67
2022-11-10T08:07:01.243Z,22.95
2022-11-10T08:09:46.664Z,23.00
2022-11-10T08:12:33.811Z,22.33
2022-11-10T08:15:19.126Z,18.35
2022-11-10T08:18:13.316Z,18.58
2022-11-10T08:21:01.281Z,22.98
2022-11-10T08:23:46.552Z,18.83
2022-11-10T08:26:32.387Z,20.23
2022-11-10T08:29:17.966Z,24.17
2022-11-10T08:32:03.561Z,21.38
2022-11-10T08:34:49.230Z,24.95
2022-11-10T08:37:34.275Z,21.38
2022-11-10T08:40:20.887Z,18.65
2022-11-10T08:43:07.482Z,16.92
2022-11-10T08:45:56.848Z,20.40
2022-11-10T08:48:41.912Z,21.15
2022-11-10T08:51:27.501Z,16.10
2022-11-10T08:54:12.879Z,14.52
2022-11-10T08:56:58.513Z,22.10
2022-11-10T08:59:43.751Z,16.13
2022-11-10T09:02:29.152Z,15.50
2022-11-10T09:05:14.598Z,18.02
2022-11-10T09:07:59.855Z,19.70
2022-11-10T09:10:47.775Z,14.95
2022-11-10T09:13:33.199Z,20.00
2022-11-10T09:16:18.789Z,22.70
2022-11-10T09:19:04.385Z,22.20
2022-11-10T09:21:49.763Z,21.88
2022-11-10T09:24:35.250Z,19.85
2022-11-10T09:27:20.645Z,22.75
2022-11-10T09:30:07.292Z,16.70
2022-11-10T09:32:57.091Z,17.65
2022-11-10T09:35:42.915Z,20.15
2022-11-10T09:38:28.210Z,18.02
2022-11-10T09:41:14.962Z,21.27
2022-11-10T09:44:11.532Z,24.52
2022-11-10T09:47:12.389Z,19.58
2022-11-10T09:50:03.748Z,20.33
2022-11-10T09:52:50.039Z,24.58
2022-11-10T09:55:43.486Z,17.92
2022-11-10T09:58:43.364Z,21.73
2022-11-10T10:01:38.102Z,14.85
2022-11-10T10:04:51.744Z,18.95
2022-11-10T10:08:03.949Z,19.95
2022-11-10T10:10:59.729Z,11.73
2022-11-10T10:14:04.915Z,16.25
2022-11-10T10:17:27.155Z,14.52
2022-11-10T10:20:34.326Z,22.08
2022-11-10T10:24:02.094Z,18.75
2022-11-10T10:26:53.230Z,17.15
2022-11-10T10:29:47.182Z,15.85
2022-11-10T10:32:32.586Z,20.98
2022-11-10T10:35:18.680Z,12.52
2022-11-10T10:38:05.451Z,21.02
2022-11-10T10:40:57.437Z,14.38
2022-11-10T10:46:47.349Z,21.13
2022-11-10T10:49:36.735Z,18.83
2022-11-10T10:52:25.251Z,13.27
2022-11-10T10:55:13.912Z,11.73
2022-11-10T10:58:23.882Z,18.92
2022-11-10T11:01:15.770Z,16.63
2022-11-10T11:04:06.040Z,12.68
2022-11-10T11:07:03.319Z,15.02
2022-11-10T11:09:49.004Z,16.00
2022-11-10T11:12:34.339Z,18.20
2022-11-10T11:15:21.794Z,15.80
2022-11-10T11:18:16.013Z,13.05
2022-11-10T11:21:13.655Z,16.45
2022-11-10T11:24:28.111Z,15.63
2022-11-10T11:27:43.108Z,17.60
2022-11-10T11:30:35.914Z,13.05
2022-11-10T11:33:27.923Z,13.27
2022-11-10T11:36:33.694Z,15.65
2022-11-10T11:39:27.082Z,18.63
2022-11-10T11:43:05.702Z,14.35
2022-11-10T11:45:57.187Z,17.40
2022-11-10T11:49:20.721Z,18.67
2022-11-10T11:52:08.702Z,14.13
2022-11-10T11:55:11.748Z,15.93
2022-11-10T11:58:28.671Z,13.68
2022-11-10T12:01:37.226Z,9.27
2022-11-10T12:04:41.946Z,15.05
2022-11-10T12:07:30.341Z,10.32
2022-11-10T12:10:35.211Z,15.57
2022-11-10T12:13:25.395Z,10.35
2022-11-10T12:16:15.436Z,15.57
2022-11-10T12:19:26.170Z,11.43
2022-11-10T12:22:24.851Z,15.77
2022-11-10T12:25:42.503Z,13.32
2022-11-10T12:28:34.129Z,14.80
2022-11-10T12:31:23.375Z,10.52
2022-11-10T12:34:43.736Z,11.70
2022-11-10T12:37:38.739Z,11.70
2022-11-10T12:40:31.173Z,10.52
2022-11-10T12:43:39.418Z,12.65
2022-11-10T12:46:24.933Z,12.30
2022-11-10T12:49:27.790Z,19.77
2022-11-10T12:52:23.700Z,11.77
2022-11-10T12:55:14.097Z,13.88
2022-11-10T12:58:01.330Z,13.00
2022-11-10T13:00:58.455Z,11.13
2022-11-10T13:03:59.269Z,10.25
2022-11-10T13:06:49.670Z,13.07
2022-11-10T13:09:38.593Z,10.90
2022-11-10T13:12:25.826Z,12.55
2022-11-10T13:15:39.061Z,14.73
2022-11-10T13:18:44.166Z,9.98
2022-11-10T13:21:51.273Z,10.60
2022-11-10T13:24:44.268Z,9.88
2022-11-10T13:27:50.448Z,12.15
2022-11-10T13:30:48.688Z,11.60
2022-11-10T13:33:39.185Z,15.55
2022-11-10T13:36:39.107Z,10.20
2022-11-10T13:39:28.397Z,6.75
2022-11-10T13:42:19.454Z,10.43
2022-11-10T13:45:34.389Z,9.98
2022-11-10T13:48:40.193Z,9.32
2022-11-10T13:51:42.569Z,7.82
2022-11-10T13:57:26.386Z,13.88
2022-11-10T14:00:14.717Z,9.40
2022-11-10T14:03:02.164Z,11.18
2022-11-10T14:06:02.769Z,8.60
2022-11-10T14:09:05.291Z,10.75
2022-11-10T14:11:55.258Z,12.40
2022-11-10T14:14:54.827Z,12.75
2022-11-10T14:17:44.182Z,12.88
2022-11-10T14:23:51.132Z,15.98
2022-11-10T14:26:48.266Z,11.55
2022-11-10T14:29:40.126Z,11.00
2022-11-10T14:32:26.456Z,13.13
2022-11-10T14:35:24.171Z,11.93
2022-11-10T14:38:21.846Z,12.57
2022-11-10T14:41:22.383Z,17.60
2022-11-10T14:44:22.595Z,13.35
2022-11-10T14:47:26.961Z,14.98
2022-11-10T14:50:20.038Z,8.27
2022-11-10T14:53:32.072Z,8.43
2022-11-10T14:56:22.149Z,12.75
2022-11-10T14:59:10.932Z,10.43
2022-11-10T15:01:58.804Z,9.18
2022-11-10T15:04:46.261Z,8.45
2022-11-10T15:07:31.785Z,12.10
2022-11-10T15:10:41.811Z,10.98
2022-11-10T15:13:27.010Z,12.15
2022-11-10T15:16:29.821Z,10.55
2022-11-10T15:19:38.627Z,11.80
2022-11-10T15:22:31.143Z,8.82
2022-11-10T15:25:19.907Z,10.10
2022-11-10T15:28:12.926Z,12.88
2022-11-10T15:31:01.257Z,7.28
2022-11-10T15:33:49.317Z,10.68
2022-11-10T15:36:39.398Z,11.35
2022-11-10T15:39:26.950Z,6.45
2022-11-10T15:42:18.680Z,10.80
2022-11-10T15:45:04.966Z,12.68
2022-11-10T15:47:50.480Z,12.90
2022-11-10T15:50:35.709Z,8.18
2022-11-10T15:53:30.399Z,10.48
2022-11-10T15:56:17.816Z,12.02
2022-11-10T15:59:03.722Z,9.32
2022-11-10T16:01:49.697Z,13.98
2022-11-10T16:04:35.072Z,12.70
2022-11-10T16:07:21.073Z,11.45
2022-11-10T16:10:06.971Z,18.13
2022-11-10T16:12:52.304Z,15.95
2022-11-10T16:15:38.787Z,12.48
2022-11-10T16:18:26.779Z,7.95
2022-11-10T16:21:20.381Z,10.15
2022-11-10T16:24:06.086Z,9.85
2022-11-10T16:26:51.499Z,8.13
2022-11-10T16:29:37.489Z,12.07
2022-11-10T16:32:23.214Z,12.70
2022-11-10T16:35:15.238Z,9.93
2022-11-10T16:38:00.287Z,8.88
2022-11-10T16:40:48.807Z,15.13
2022-11-10T16:43:34.002Z,11.10
2022-11-10T16:46:28.611Z,8.25
2022-11-10T16:49:35.074Z,7.03
2022-11-10T16:52:21.389Z,7.93
2022-11-10T16:55:24.274Z,11.22
2022-11-10T16:58:09.672Z,10.15
2022-11-10T17:01:00.036Z,12.98
2022-11-10T17:03:53.696Z,9.23
2022-11-10T17:06:38.865Z,12.20
2022-11-10T17:09:27.922Z,16.85
2022-11-10T17:12:14.498Z,12.23
2022-11-10T17:14:59.522Z,11.95
2022-11-10T17:17:47.530Z,16.17
2022-11-10T17:20:37.654Z,10.00
2022-11-10T17:23:25.245Z,14.38
2022-11-10T17:26:14.078Z,11.35
2022-11-10T17:28:59.419Z,14.00
2022-11-10T17:31:45.294Z,10.52
2022-11-10T17:34:30.737Z,9.57
2022-11-10T17:37:16.633Z,7.78
2022-11-10T17:40:19.355Z,11.38
2022-11-10T17:43:04.484Z,11.90
2022-11-10T17:45:50.007Z,14.13
2022-11-10T17:48:35.549Z,11.25
2022-11-10T17:51:22.456Z,12.27
2022-11-10T17:54:15.193Z,9.23
2022-11-10T17:57:00.315Z,9.93
2022-11-10T17:59:45.681Z,11.15
2022-11-10T18:02:31.023Z,9.85
2022-11-10T18:05:17.799Z,18.00
2022-11-10T18:08:03.368Z,10.80
2022-11-10T18:10:50.983Z,9.63
2022-11-10T18:13:40.547Z,7.78
2022-11-10T18:16:26.970Z,9.18
2022-11-10T18:19:12.112Z,7.68
2022-11-10T18:21:57.527Z,9.35
2022-11-10T18:24:42.719Z,13.63
2022-11-10T18:27:28.489Z,11.05
2022-11-10T18:30:14.710Z,11.65
2022-11-10T18:33:04.737Z,8.23
2022-11-10T18:35:50.012Z,10.50
2022-11-10T18:38:36.026Z,9.20
2022-11-10T18:41:39.860Z,10.25
2022-11-10T18:44:26.205Z,12.25
2022-11-10T18:47:12.903Z,10.88
2022-11-10T18:49:58.027Z,11.65
2022-11-10T18:52:43.925Z,12.57
2022-11-10T18:55:29.041Z,10.45
2022-11-10T18:58:14.255Z,9.30
2022-11-10T19:01:07.883Z,10.05
2022-11-10T19:03:54.060Z,8.07
2022-11-10T19:06:40.118Z,8.85
2022-11-10T19:09:25.727Z,10.45
2022-11-10T19:12:12.007Z,9.77
2022-11-10T19:14:57.253Z,6.80
2022-11-10T19:17:42.806Z,10.13
2022-11-10T19:20:28.023Z,11.60
2022-11-10T19:23:13.462Z,12.90
2022-11-10T19:26:03.485Z,12.60
2022-11-10T19:28:48.715Z,8.93
2022-11-10T19:31:34.227Z,13.10
2022-11-10T19:34:19.626Z,11.23
2022-11-10T19:37:05.685Z,11.68
2022-11-10T19:39:50.809Z,11.60
2022-11-10T19:42:36.085Z,12.07
2022-11-10T19:45:21.225Z,17.25
2022-11-10T19:48:06.610Z,10.70
2022-11-10T19:50:56.172Z,11.15
2022-11-10T19:53:46.069Z,11.93
2022-11-10T19:56:34.379Z,11.55
2022-11-10T19:59:21.034Z,12.70
2022-11-10T20:02:06.575Z,10.10
2022-11-10T20:05:10.220Z,11.95
2022-11-10T20:08:21.498Z,8.15
2022-11-10T20:11:10.848Z,10.68
2022-11-10T20:14:00.393Z,10.57
2022-11-10T20:16:45.648Z,9.40
2022-11-10T20:19:31.157Z,8.55
2022-11-10T20:22:16.556Z,10.30
2022-11-10T20:25:01.959Z,7.05
2022-11-10T20:27:47.378Z,8.98
2022-11-10T20:30:35.045Z,6.47
2022-11-10T20:33:20.337Z,9.35
2022-11-10T20:36:17.552Z,11.68
2022-11-10T20:39:05.148Z,7.03
2022-11-10T20:41:52.427Z,7.70
2022-11-10T20:44:37.620Z,9.35
2022-11-10T20:47:23.156Z,11.27
2022-11-10T20:50:14.089Z,10.35
2022-11-10T20:53:00.829Z,10.13
2022-11-10T20:55:54.150Z,8.05
2022-11-10T20:58:40.579Z,8.88
2022-11-10T21:01:26.203Z,8.38
2022-11-10T21:04:12.613Z,10.52
2022-11-10T21:06:58.145Z,14.90
2022-11-10T21:09:43.385Z,7.57
2022-11-10T21:12:47.657Z,9.27
2022-11-10T21:15:37.224Z,7.05
2022-11-10T21:18:24.096Z,10.70
2022-11-10T21:21:23.572Z,10.13
2022-11-10T21:24:09.670Z,12.48
2022-11-10T21:26:56.243Z,7.57
2022-11-10T21:29:42.245Z,8.63
2022-11-10T21:32:27.989Z,12.43
2022-11-10T21:35:13.122Z,12.77
2022-11-10T21:37:58.395Z,6.90
2022-11-10T21:40:43.717Z,7.63
2022-11-10T21:43:29.495Z,7.47
2022-11-10T21:46:14.923Z,9.25
2022-11-10T21:49:06.150Z,7.75
2022-11-10T21:51:52.724Z,8.32
2022-11-10T21:54:38.019Z,10.38
2022-11-10T21:57:23.675Z,9.57
2022-11-10T22:00:11.248Z,9.38
2022-11-10T22:03:01.050Z,8.77
2022-11-10T22:05:46.493Z,11.52
2022-11-10T22:08:32.257Z,9.50
2022-11-10T22:11:38.265Z,7.72
2022-11-10T22:14:42.364Z,8.77
2022-11-10T22:17:46.927Z,10.75
2022-11-10T22:20:32.420Z,7.28
2022-11-10T22:23:17.771Z,8.52
2022-11-10T22:26:03.352Z,7.10
2022-11-10T22:28:49.132Z,7.72
2022-11-10T22:31:34.694Z,8.38
2022-11-10T22:34:20.311Z,8.52
2022-11-10T22:37:05.546Z,7.25
2022-11-10T22:40:09.567Z,13.20
2022-11-10T22:43:13.391Z,9.18
2022-11-10T22:45:58.770Z,10.77
2022-11-10T22:48:44.222Z,6.05
2022-11-10T22:51:30.807Z,6.95
2022-11-10T22:54:19.014Z,8.63
2022-11-10T22:57:05.146Z,7.68
2022-11-10T22:59:50.434Z,9.23
2022-11-10T23:02:35.634Z,10.52
2022-11-10T23:05:21.507Z,8.35
2022-11-10T23:08:06.585Z,7.93
2022-11-10T23:11:19.951Z,9.18
2022-11-10T23:14:05.010Z,11.25
2022-11-10T23:16:50.421Z,9.00
2022-11-10T23:19:35.614Z,8.90
2022-11-10T23:22:21.104Z,7.15
2022-11-10T23:25:06.977Z,10.82
2022-11-10T23:27:52.238Z,10.35
2022-11-10T23:30:37.639Z,10.93
2022-11-10T23:33:23.701Z,12.45
2022-11-10T23:36:12.116Z,10.07
2022-11-10T23:38:57.272Z,9.98
2022-11-10T23:41:42.609Z,11.93
2022-11-10T23:44:27.916Z,8.27
2022-11-10T23:47:13.374Z,12.75
2022-11-10T23:49:58.579Z,10.85
2022-11-10T23:52:43.934Z,10.50
2022-11-10T23:55:29.448Z,8.80
2022-11-10T23:58:14.856Z,7.97
